createdAt,value
2023-01-18T00:01:02.037Z,98308.00
2023-01-18T00:03:33.277Z,98302.00
2023-01-18T00:06:02.572Z,98294.00
2023-01-18T00:08:32.188Z,98294.00
2023-01-18T00:11:03.831Z,98289.00
2023-01-18T00:13:31.563Z,98292.00
2023-01-18T00:16:03.561Z,98286.00
2023-01-18T00:18:32.981Z,98287.00
2023-01-18T00:21:04.342Z,98292.00
2023-01-18T00:23:32.269Z,98288.00
2023-01-18T00:26:03.115Z,98284.00
2023-01-18T00:28:31.323Z,98282.00
2023-01-18T00:30:59.165Z,98283.00
2023-01-18T00:33:26.910Z,98282.00
2023-01-18T00:36:00.443Z,98271.00
2023-01-18T00:38:29.955Z,98288.00
2023-01-18T00:40:58.146Z,98275.00
2023-01-18T00:43:40.088Z,98283.00
2023-01-18T00:46:08.750Z,98282.00
2023-01-18T00:48:38.745Z,98266.00
2023-01-18T00:51:08.710Z,98267.00
2023-01-18T00:53:38.059Z,98268.00
2023-01-18T00:56:06.805Z,98250.00
2023-01-18T00:58:34.465Z,98264.00
2023-01-18T01:01:02.200Z,98260.00
2023-01-18T01:03:49.915Z,98264.00
2023-01-18T01:06:40.281Z,98272.00
2023-01-18T01:09:07.904Z,98281.00
2023-01-18T01:11:35.588Z,98275.00
2023-01-18T01:14:21.072Z,98282.00
2023-01-18T01:17:06.386Z,98287.00
2023-01-18T01:19:51.827Z,98281.00
2023-01-18T01:22:41.607Z,98281.00
2023-01-18T01:25:27.409Z,98278.00
2023-01-18T01:27:55.272Z,98281.00
2023-01-18T01:30:23.076Z,98287.00
2023-01-18T01:32:51.322Z,98289.00
2023-01-18T01:35:19.012Z,98295.00
2023-01-18T01:37:48.079Z,98290.00
2023-01-18T01:40:15.989Z,98297.00
2023-01-18T01:42:43.703Z,98291.00
2023-01-18T01:45:11.878Z,98301.00
2023-01-18T01:47:45.354Z,98302.00
2023-01-18T01:50:22.465Z,98290.00
2023-01-18T01:52:51.768Z,98292.00
2023-01-18T01:55:25.726Z,98302.00
2023-01-18T01:57:57.439Z,98297.00
2023-01-18T02:00:25.981Z,98295.00
2023-01-18T02:02:56.824Z,98309.00
2023-01-18T02:05:25.731Z,98302.00
2023-01-18T02:07:55.465Z,98308.00
2023-01-18T02:10:23.140Z,98307.00
2023-01-18T02:12:54.696Z,98308.00
2023-01-18T02:15:24.036Z,98307.00
2023-01-18T02:18:04.477Z,98305.00
2023-01-18T02:21:02.370Z,98300.00
2023-01-18T02:23:40.327Z,98302.00
2023-01-18T02:26:58.053Z,98314.00
2023-01-18T02:29:35.748Z,98304.00
2023-01-18T02:32:17.184Z,98307.00
2023-01-18T02:34:49.895Z,98316.00
2023-01-18T02:37:30.129Z,98306.00
2023-01-18T02:40:11.501Z,98315.00
2023-01-18T02:42:58.796Z,98315.00
2023-01-18T02:45:50.167Z,98318.00
2023-01-18T02:48:19.403Z,98317.00
2023-01-18T02:50:47.136Z,98327.00
2023-01-18T02:53:15.806Z,98319.00
2023-01-18T02:55:48.315Z,98327.00
2023-01-18T02:58:21.790Z,98319.00
2023-01-18T03:00:54.617Z,98340.00
2023-01-18T03:03:23.645Z,98335.00
2023-01-18T03:05:54.020Z,98332.00
2023-01-18T03:08:26.498Z,98337.00
2023-01-18T03:11:01.402Z,98332.00
2023-01-18T03:13:38.083Z,98332.00
2023-01-18T03:16:13.455Z,98337.00
2023-01-18T03:19:01.031Z,98335.00
2023-01-18T03:21:35.526Z,98335.00
2023-01-18T03:24:06.710Z,98333.00
2023-01-18T03:26:37.239Z,98330.00
2023-01-18T03:29:23.921Z,98335.00
2023-01-18T03:32:14.031Z,98322.00
2023-01-18T03:34:51.327Z,98328.00
2023-01-18T03:37:23.879Z,98333.00
2023-01-18T03:39:55.561Z,98334.00
2023-01-18T03:42:27.186Z,98332.00
2023-01-18T03:44:58.898Z,98338.00
2023-01-18T03:47:28.093Z,98335.00
2023-01-18T03:49:55.951Z,98341.00
2023-01-18T03:52:26.563Z,98342.00
2023-01-18T03:55:01.377Z,98335.00
2023-01-18T03:57:34.997Z,98341.00
2023-01-18T04:00:04.115Z,98341.00
2023-01-18T04:02:33.557Z,98354.00
2023-01-18T04:05:03.642Z,98335.00
2023-01-18T04:07:32.394Z,98339.00
2023-01-18T04:10:00.317Z,98340.00
2023-01-18T04:12:28.217Z,98354.00
2023-01-18T04:14:55.946Z,98354.00
2023-01-18T04:17:23.881Z,98358.00
2023-01-18T04:19:53.479Z,98368.00
2023-01-18T04:22:21.271Z,98370.00
2023-01-18T04:24:48.989Z,98372.00
2023-01-18T04:27:16.723Z,98378.00
2023-01-18T04:29:44.445Z,98376.00
2023-01-18T04:32:12.123Z,98390.00
2023-01-18T04:34:39.889Z,98395.00
2023-01-18T04:37:08.956Z,98384.00
2023-01-18T04:39:37.769Z,98399.00
2023-01-18T04:42:05.886Z,98396.00
2023-01-18T04:44:33.644Z,98387.00
2023-01-18T04:47:01.341Z,98401.00
2023-01-18T04:49:28.995Z,98394.00
2023-01-18T04:51:56.735Z,98405.00
2023-01-18T04:54:26.135Z,98403.00
2023-01-18T04:56:54.241Z,98404.00
2023-01-18T04:59:22.109Z,98403.00
2023-01-18T05:01:49.896Z,98401.00
2023-01-18T05:04:17.716Z,98417.00
2023-01-18T05:06:45.417Z,98415.00
2023-01-18T05:09:13.475Z,98415.00
2023-01-18T05:11:43.067Z,98415.00
2023-01-18T05:14:10.837Z,98424.00
2023-01-18T05:16:38.611Z,98425.00
2023-01-18T05:19:06.342Z,98436.00
2023-01-18T05:21:34.072Z,98422.00
2023-01-18T05:24:01.776Z,98436.00
2023-01-18T05:26:29.511Z,98441.00
2023-01-18T05:28:59.668Z,98439.00
2023-01-18T05:31:27.571Z,98431.00
2023-01-18T05:33:57.430Z,98432.00
2023-01-18T05:36:25.418Z,98442.00
2023-01-18T05:38:53.532Z,98438.00
2023-01-18T05:41:22.038Z,98440.00
2023-01-18T05:43:49.903Z,98443.00
2023-01-18T05:46:18.943Z,98440.00
2023-01-18T05:48:46.584Z,98443.00
2023-01-18T05:51:14.602Z,98438.00
2023-01-18T05:53:42.359Z,98448.00
2023-01-18T05:56:10.929Z,98453.00
2023-01-18T05:58:38.916Z,98454.00
2023-01-18T06:01:07.675Z,98452.00
2023-01-18T06:03:37.323Z,98452.00
2023-01-18T06:06:05.763Z,98460.00
2023-01-18T06:08:34.841Z,98474.00
2023-01-18T06:11:02.748Z,98474.00
2023-01-18T06:13:32.661Z,98469.00
2023-01-18T06:16:01.593Z,98467.00
2023-01-18T06:18:32.761Z,98481.00
2023-01-18T06:21:03.773Z,98486.00
2023-01-18T06:23:32.381Z,98487.00
2023-01-18T06:26:00.292Z,98484.00
2023-01-18T06:28:30.552Z,98489.00
2023-01-18T06:30:58.668Z,98494.00
2023-01-18T06:33:26.590Z,98494.00
2023-01-18T06:35:54.725Z,98505.00
2023-01-18T06:38:23.846Z,98502.00
2023-01-18T06:40:51.502Z,98495.00
2023-01-18T06:43:19.513Z,98504.00
2023-01-18T06:45:53.739Z,98517.00
2023-01-18T06:48:22.189Z,98509.00
2023-01-18T06:50:49.866Z,98515.00
2023-01-18T06:53:17.645Z,98516.00
2023-01-18T06:55:53.876Z,98516.00
2023-01-18T06:58:24.274Z,98520.00
2023-01-18T07:00:52.330Z,98517.00
2023-01-18T07:03:20.541Z,98523.00
2023-01-18T07:05:48.212Z,98529.00
2023-01-18T07:08:16.000Z,98531.00
2023-01-18T07:10:43.993Z,98520.00
2023-01-18T07:13:13.660Z,98514.00
2023-01-18T07:15:41.638Z,98557.00
2023-01-18T07:18:22.658Z,98568.00
2023-01-18T07:20:58.657Z,98499.00
2023-01-18T07:23:26.934Z,98566.00
2023-01-18T07:26:16.069Z,98573.00
2023-01-18T07:28:46.656Z,98539.00
2023-01-18T07:31:15.711Z,98589.00
2023-01-18T07:33:45.622Z,98556.00
2023-01-18T07:36:16.398Z,98585.00
2023-01-18T07:38:45.464Z,98577.00
2023-01-18T07:41:15.677Z,98552.00
2023-01-18T07:43:49.058Z,98574.00
2023-01-18T07:46:23.446Z,98603.00
2023-01-18T07:48:55.225Z,98590.00
2023-01-18T07:51:23.762Z,98563.00
2023-01-18T07:53:56.065Z,98609.00
2023-01-18T07:56:25.962Z,98577.00
2023-01-18T07:58:57.686Z,98614.00
2023-01-18T08:01:26.644Z,98590.00
2023-01-18T08:03:55.112Z,98582.00
2023-01-18T08:06:25.947Z,98615.00
2023-01-18T08:08:55.129Z,98584.00
2023-01-18T08:11:23.127Z,98586.00
2023-01-18T08:13:52.737Z,98597.00
2023-01-18T08:16:22.283Z,98561.00
2023-01-18T08:18:51.266Z,98637.00
2023-01-18T08:21:19.705Z,98590.00
2023-01-18T08:23:47.731Z,98605.00
2023-01-18T08:26:16.034Z,98625.00
2023-01-18T08:28:44.847Z,98647.00
2023-01-18T08:31:15.445Z,98610.00
2023-01-18T08:33:47.739Z,98602.00
2023-01-18T08:36:18.227Z,98651.00
2023-01-18T08:38:49.259Z,98645.00
2023-01-18T08:41:17.339Z,98628.00
2023-01-18T08:43:47.708Z,98616.00
2023-01-18T08:46:17.790Z,98661.00
2023-01-18T08:48:51.631Z,98642.00
2023-01-18T08:51:20.578Z,98651.00
2023-01-18T08:53:48.606Z,98638.00
2023-01-18T08:56:16.512Z,98674.00
2023-01-18T08:58:44.614Z,98641.00
2023-01-18T09:01:12.971Z,98679.00
2023-01-18T09:03:41.955Z,98626.00
2023-01-18T09:06:13.190Z,98668.00
2023-01-18T09:08:41.286Z,98670.00
2023-01-18T09:11:11.796Z,98686.00
2023-01-18T09:13:59.353Z,98688.00
2023-01-18T09:16:28.311Z,98662.00
2023-01-18T09:18:57.192Z,98707.00
2023-01-18T09:21:29.081Z,98708.00
2023-01-18T09:23:57.315Z,98714.00
2023-01-18T09:26:32.015Z,98684.00
2023-01-18T09:33:37.580Z,98727.00
2023-01-18T09:36:11.363Z,98710.00
2023-01-18T09:38:46.084Z,98706.00
2023-01-18T09:41:30.255Z,98664.00
2023-01-18T09:44:02.735Z,98659.00
2023-01-18T09:55:37.292Z,98713.00
2023-01-18T09:58:22.044Z,98715.00
2023-01-18T10:00:54.099Z,98725.00
2023-01-18T10:08:03.242Z,98669.00
2023-01-18T10:18:31.487Z,98734.00
2023-01-18T10:21:06.702Z,98727.00
2023-01-18T10:23:46.788Z,98694.00
2023-01-18T10:26:22.451Z,98746.00
2023-01-18T10:28:56.899Z,98738.00
2023-01-18T10:35:24.698Z,98716.00
2023-01-18T10:37:57.265Z,98691.00
2023-01-18T10:40:25.752Z,98704.00
2023-01-18T10:42:58.035Z,98701.00
2023-01-18T10:45:38.137Z,98707.00
2023-01-18T10:48:31.392Z,98743.00
2023-01-18T10:51:09.993Z,98737.00
2023-01-18T11:00:01.141Z,98716.00
2023-01-18T11:02:32.620Z,98749.00
2023-01-18T11:05:06.430Z,98703.00
2023-01-18T11:07:41.085Z,98722.00
2023-01-18T11:10:31.319Z,98751.00
2023-01-18T11:12:59.926Z,98716.00
2023-01-18T11:15:30.407Z,98748.00
2023-01-18T11:18:06.159Z,98754.00
2023-01-18T11:20:37.804Z,98760.00
2023-01-18T11:23:16.126Z,98728.00
2023-01-18T11:25:52.190Z,98723.00
2023-01-18T11:28:23.033Z,98726.00
2023-01-18T11:30:55.593Z,98738.00
2023-01-18T11:33:27.140Z,98763.00
2023-01-18T11:35:57.790Z,98729.00
2023-01-18T11:38:32.108Z,98748.00
2023-01-18T11:41:08.335Z,98751.00
2023-01-18T11:43:39.314Z,98776.00
2023-01-18T11:46:23.786Z,98758.00
2023-01-18T11:48:55.834Z,98737.00
2023-01-18T11:51:29.114Z,98753.00
2023-01-18T11:54:04.221Z,98734.00
2023-01-18T11:56:37.788Z,98740.00
2023-01-18T11:59:13.999Z,98762.00
2023-01-18T12:02:16.759Z,98753.00
2023-01-18T12:04:57.604Z,98766.00
2023-01-18T12:07:36.455Z,98746.00
2023-01-18T12:10:08.636Z,98762.00
2023-01-18T12:12:48.980Z,98768.00
2023-01-18T12:15:38.864Z,98750.00
2023-01-18T12:18:21.845Z,98738.00
2023-01-18T12:20:58.880Z,98713.00
2023-01-18T12:23:54.195Z,98747.00
2023-01-18T12:26:47.819Z,98765.00
2023-01-18T12:29:49.435Z,98746.00
2023-01-18T12:32:31.442Z,98739.00
2023-01-18T12:35:24.135Z,98762.00
2023-01-18T12:38:00.106Z,98742.00
2023-01-18T12:40:45.289Z,98738.00
2023-01-18T12:43:28.642Z,98724.00
2023-01-18T12:46:04.038Z,98784.00
2023-01-18T12:48:48.335Z,98763.00
2023-01-18T12:51:19.525Z,98717.00
2023-01-18T12:53:54.371Z,98810.00
2023-01-18T12:56:29.412Z,98756.00
2023-01-18T12:59:06.546Z,98750.00
2023-01-18T13:01:40.408Z,98764.00
2023-01-18T13:04:16.371Z,98795.00
2023-01-18T13:06:45.069Z,98803.00
2023-01-18T13:09:36.867Z,98815.00
2023-01-18T13:12:06.938Z,98811.00
2023-01-18T13:14:41.788Z,98814.00
2023-01-18T13:17:15.901Z,98805.00
2023-01-18T13:19:50.096Z,98803.00
2023-01-18T13:22:26.192Z,98812.00
2023-01-18T13:25:09.060Z,98818.00
2023-01-18T13:27:37.836Z,98817.00
2023-01-18T13:30:19.210Z,98824.00
2023-01-18T13:32:49.135Z,98830.00
2023-01-18T13:35:22.062Z,98836.00
2023-01-18T13:37:55.726Z,98835.00
2023-01-18T13:40:38.293Z,98832.00
2023-01-18T13:43:07.070Z,98826.00
2023-01-18T13:46:00.799Z,98842.00
2023-01-18T13:48:45.504Z,98841.00
2023-01-18T13:51:54.800Z,98852.00
2023-01-18T13:54:58.741Z,98843.00
2023-01-18T13:57:26.776Z,98843.00
2023-01-18T13:59:54.588Z,98840.00
2023-01-18T14:02:28.872Z,98843.00
2023-01-18T14:05:07.344Z,98848.00
2023-01-18T14:07:45.463Z,98856.00
2023-01-18T14:10:30.404Z,98851.00
2023-01-18T14:12:59.970Z,98858.00
2023-01-18T14:15:41.244Z,98858.00
2023-01-18T14:18:20.975Z,98871.00
2023-01-18T14:20:58.843Z,98869.00
2023-01-18T14:23:58.788Z,98874.00
2023-01-18T14:26:29.910Z,98868.00
2023-01-18T14:29:01.946Z,98864.00
2023-01-18T14:31:32.897Z,98876.00
2023-01-18T14:34:25.958Z,98878.00
2023-01-18T14:36:53.757Z,98885.00
2023-01-18T14:39:21.691Z,98877.00
2023-01-18T14:41:52.910Z,98882.00
2023-01-18T14:44:23.399Z,98886.00
2023-01-18T14:46:52.880Z,98886.00
2023-01-18T14:49:26.758Z,98891.00
2023-01-18T14:51:55.368Z,98896.00
2023-01-18T14:54:25.839Z,98894.00
2023-01-18T14:57:01.889Z,98896.00
2023-01-18T14:59:31.123Z,98902.00
2023-01-18T15:02:00.752Z,98903.00
2023-01-18T15:04:32.921Z,98909.00
2023-01-18T15:07:05.161Z,98917.00
2023-01-18T15:09:35.580Z,98916.00
2023-01-18T15:12:06.740Z,98929.00
2023-01-18T15:14:37.674Z,98931.00
2023-01-18T15:17:09.405Z,98927.00
2023-01-18T15:19:43.242Z,98935.00
2023-01-18T15:22:13.112Z,98933.00
2023-01-18T15:24:42.615Z,98934.00
2023-01-18T15:27:13.620Z,98946.00
2023-01-18T15:29:41.445Z,98945.00
2023-01-18T15:32:15.432Z,98947.00
2023-01-18T15:34:47.188Z,98963.00
2023-01-18T15:37:17.472Z,98960.00
2023-01-18T15:39:56.683Z,98968.00
2023-01-18T15:42:28.967Z,98974.00
2023-01-18T15:44:59.381Z,98970.00
2023-01-18T15:47:29.744Z,98968.00
2023-01-18T15:50:00.577Z,98976.00
2023-01-18T15:52:37.292Z,98976.00
2023-01-18T15:55:06.862Z,98972.00
2023-01-18T15:57:36.040Z,98983.00
2023-01-18T16:00:06.068Z,98984.00
2023-01-18T16:02:34.083Z,98997.00
2023-01-18T16:05:25.245Z,98993.00
2023-01-18T16:08:16.091Z,99000.00
2023-01-18T16:10:50.100Z,99001.00
2023-01-18T16:13:32.862Z,98995.00
2023-01-18T16:16:20.128Z,99007.00
2023-01-18T16:18:51.609Z,99007.00
2023-01-18T16:21:30.454Z,99012.00
2023-01-18T16:23:58.582Z,99002.00
2023-01-18T16:26:30.924Z,99005.00
2023-01-18T16:29:07.644Z,99015.00
2023-01-18T16:31:35.985Z,99015.00
2023-01-18T16:34:04.099Z,99007.00
2023-01-18T16:36:41.707Z,99021.00
2023-01-18T16:39:10.909Z,99013.00
2023-01-18T16:41:38.573Z,99019.00
2023-01-18T16:44:06.452Z,99009.00
2023-01-18T16:46:35.664Z,99024.00
2023-01-18T16:49:03.383Z,99021.00
2023-01-18T16:51:31.043Z,99029.00
2023-01-18T16:54:00.137Z,99029.00
2023-01-18T16:56:27.892Z,99025.00
2023-01-18T16:58:55.658Z,99025.00
2023-01-18T17:01:23.549Z,99036.00
2023-01-18T17:03:51.770Z,99043.00
2023-01-18T17:06:21.149Z,99042.00
2023-01-18T17:08:49.117Z,99039.00
2023-01-18T17:11:18.565Z,99050.00
2023-01-18T17:13:47.628Z,99049.00
2023-01-18T17:16:18.679Z,99064.00
2023-01-18T17:18:47.972Z,99065.00
2023-01-18T17:21:15.716Z,99063.00
2023-01-18T17:23:43.376Z,99064.00
2023-01-18T17:26:13.914Z,99068.00
2023-01-18T17:28:42.980Z,99065.00
2023-01-18T17:31:11.525Z,99077.00
2023-01-18T17:33:40.394Z,99066.00
2023-01-18T17:36:09.667Z,99074.00
2023-01-18T17:38:37.537Z,99062.00
2023-01-18T17:41:05.304Z,99066.00
2023-01-18T17:43:34.885Z,99077.00
2023-01-18T17:46:05.600Z,99084.00
2023-01-18T17:48:33.495Z,99084.00
2023-01-18T17:51:01.399Z,99086.00
2023-01-18T17:53:29.281Z,99097.00
2023-01-18T17:55:57.037Z,99098.00
2023-01-18T17:58:24.979Z,99097.00
2023-01-18T18:00:52.726Z,99100.00
2023-01-18T18:03:22.142Z,99099.00
2023-01-18T18:05:50.778Z,99102.00
2023-01-18T18:08:19.079Z,99106.00
2023-01-18T18:10:47.448Z,99109.00
2023-01-18T18:13:15.127Z,99108.00
2023-01-18T18:15:46.464Z,99100.00
2023-01-18T18:18:29.786Z,99118.00
2023-01-18T18:20:59.570Z,99118.00
2023-01-18T18:23:28.188Z,99126.00
2023-01-18T18:25:55.925Z,99128.00
2023-01-18T18:28:27.369Z,99126.00
2023-01-18T18:30:56.648Z,99122.00
2023-01-18T18:33:25.381Z,99131.00
2023-01-18T18:35:53.654Z,99123.00
2023-01-18T18:38:23.830Z,99137.00
2023-01-18T18:40:52.210Z,99137.00
2023-01-18T18:43:20.479Z,99136.00
2023-01-18T18:45:48.352Z,99141.00
2023-01-18T18:48:16.042Z,99145.00
2023-01-18T18:50:43.718Z,99130.00
2023-01-18T18:53:11.454Z,99138.00
2023-01-18T18:55:40.519Z,99139.00
2023-01-18T18:58:08.358Z,99136.00
2023-01-18T19:00:36.178Z,99143.00
2023-01-18T19:03:05.808Z,99140.00
2023-01-18T19:05:34.959Z,99145.00
2023-01-18T19:08:03.914Z,99144.00
2023-01-18T19:10:31.712Z,99143.00
2023-01-18T19:13:02.733Z,99160.00
2023-01-18T19:15:30.774Z,99141.00
2023-01-18T19:17:59.007Z,99160.00
2023-01-18T19:20:26.744Z,99157.00
2023-01-18T19:22:54.670Z,99139.00
2023-01-18T19:25:22.547Z,99156.00
2023-01-18T19:27:50.234Z,99138.00
2023-01-18T19:30:20.135Z,99147.00
2023-01-18T19:32:50.761Z,99144.00
2023-01-18T19:35:18.712Z,99150.00
2023-01-18T19:37:46.803Z,99164.00
2023-01-18T19:40:16.291Z,99154.00
2023-01-18T19:42:46.601Z,99156.00
2023-01-18T19:45:23.180Z,99154.00
2023-01-18T19:47:58.025Z,99154.00
2023-01-18T19:50:26.674Z,99154.00
2023-01-18T19:52:54.638Z,99157.00
2023-01-18T19:55:22.697Z,99156.00
2023-01-18T19:57:52.325Z,99155.00
2023-01-18T20:00:20.946Z,99168.00
2023-01-18T20:02:48.757Z,99153.00
2023-01-18T20:05:18.111Z,99162.00
2023-01-18T20:07:45.882Z,99160.00
2023-01-18T20:10:13.670Z,99166.00
2023-01-18T20:12:41.330Z,99167.00
2023-01-18T20:15:09.542Z,99158.00
2023-01-18T20:17:37.269Z,99155.00
2023-01-18T20:20:06.270Z,99158.00
2023-01-18T20:22:36.775Z,99156.00
2023-01-18T20:25:06.465Z,99148.00
2023-01-18T20:27:35.123Z,99168.00
2023-01-18T20:30:04.463Z,99152.00
2023-01-18T20:32:33.583Z,99169.00
2023-01-18T20:35:03.768Z,99173.00
2023-01-18T20:37:32.239Z,99161.00
2023-01-18T20:40:04.448Z,99173.00
2023-01-18T20:42:32.379Z,99174.00
2023-01-18T20:45:00.545Z,99175.00
2023-01-18T20:47:28.379Z,99177.00
2023-01-18T20:49:56.187Z,99184.00
2023-01-18T20:52:24.185Z,99196.00
2023-01-18T20:54:52.250Z,99181.00
2023-01-18T20:57:23.446Z,99177.00
2023-01-18T20:59:51.310Z,99180.00
2023-01-18T21:02:22.771Z,99135.00
2023-01-18T21:04:50.898Z,99184.00
2023-01-18T21:07:20.789Z,99180.00
2023-01-18T21:09:56.116Z,99156.00
2023-01-18T21:12:25.315Z,99177.00
2023-01-18T21:14:53.589Z,99163.00
2023-01-18T21:17:21.933Z,99138.00
2023-01-18T21:19:53.208Z,99189.00
2023-01-18T21:22:23.253Z,99172.00
2023-01-18T21:24:51.175Z,99191.00
2023-01-18T21:27:18.971Z,99177.00
2023-01-18T21:29:48.205Z,99167.00
2023-01-18T21:32:15.998Z,99190.00
2023-01-18T21:34:43.758Z,99189.00
2023-01-18T21:37:12.979Z,99197.00
2023-01-18T21:39:40.850Z,99200.00
2023-01-18T21:42:26.455Z,99201.00
2023-01-18T21:45:12.901Z,99187.00
2023-01-18T21:47:40.869Z,99210.00
2023-01-18T21:50:32.347Z,99215.00
2023-01-18T21:53:17.717Z,99205.00
2023-01-18T21:55:45.567Z,99216.00
2023-01-18T21:58:31.067Z,99227.00
2023-01-18T22:01:00.895Z,99212.00
2023-01-18T22:03:28.885Z,99162.00
2023-01-18T22:05:56.655Z,99200.00
2023-01-18T22:08:24.526Z,99216.00
2023-01-18T22:10:55.850Z,99182.00
2023-01-18T22:13:37.165Z,99234.00
2023-01-18T22:16:23.525Z,99242.00
2023-01-18T22:19:00.181Z,99195.00
2023-01-18T22:21:43.657Z,99214.00
2023-01-18T22:24:21.641Z,99225.00
2023-01-18T22:26:52.595Z,99202.00
2023-01-18T22:29:33.345Z,99209.00
2023-01-18T22:32:16.632Z,99232.00
2023-01-18T22:34:52.267Z,99221.00
2023-01-18T22:37:27.801Z,99173.00
2023-01-18T22:40:18.002Z,99222.00
2023-01-18T22:42:58.724Z,99184.00
2023-01-18T22:45:32.429Z,99230.00
2023-01-18T22:48:16.895Z,99235.00
2023-01-18T22:50:59.651Z,99201.00
2023-01-18T22:56:36.723Z,99203.00
2023-01-18T22:59:15.952Z,99216.00
2023-01-18T23:01:55.729Z,99198.00
2023-01-18T23:04:32.170Z,99189.00
2023-01-18T23:07:10.195Z,99184.00
2023-01-18T23:09:39.996Z,99161.00
2023-01-18T23:12:35.051Z,99192.00
2023-01-18T23:15:23.338Z,99169.00
2023-01-18T23:18:03.767Z,99213.00
2023-01-18T23:20:43.129Z,99194.00
2023-01-18T23:23:22.598Z,99218.00
2023-01-18T23:26:03.018Z,99227.00
2023-01-18T23:28:57.912Z,99212.00
2023-01-18T23:31:46.507Z,99218.00
2023-01-18T23:34:22.137Z,99195.00
2023-01-18T23:37:00.159Z,99192.00
2023-01-18T23:39:47.669Z,99230.00
2023-01-18T23:42:50.356Z,99217.00
2023-01-18T23:45:38.918Z,99205.00
2023-01-18T23:48:29.881Z,99252.00
2023-01-18T23:51:18.304Z,99207.00
2023-01-18T23:54:04.900Z,99238.00
2023-01-18T23:56:45.568Z,99208.00
2023-01-18T23:59:27.925Z,99202.00
